M I D A S
Marine Information and Data Acquisition System
Tripno 1555 of the Zeeleeuw from 2008-08-05 05:30:06 to 2008-08-05 16:48:53
Back to CruiseResearch ActivitiesStationsMapUnderway DataData graphs

EquipmentUnitsComment
TimeDGPSUTC
LatitudeDGPSDM.mWGS84
LongitudeDGPSDM.mWGS84
HeadingGyrodeg 
SOGDGPSknotsSpeed over ground
COGDGPSdegCourse over ground
DepthEcho soundermeters200 kHz
Missing or incorrect values are displayed as -999
Navigation data collected by the RV Zeeleeuw from 2008-08-05 05:30:06 to 2008-08-05 16:53:47
                                                                                    Next 1000 lines
Time Latitude Longitude Heading SOG COG Depth
2008-08-05 05:30:16 51°13.623 2°56.046 111 0.7 295 10
2008-08-05 05:30:21 51°13.623 2°56.044 110.7 1 294 10
2008-08-05 05:30:26 51°13.624 2°56.041 110.7 1.4 295 9.8
2008-08-05 05:30:31 51°13.625 2°56.038 110.8 1.7 295 9.6
2008-08-05 05:30:36 51°13.626 2°56.034 111.3 2 296 10
2008-08-05 05:30:41 51°13.627 2°56.029 112 2.3 297 -999
2008-08-05 05:30:46 51°13.629 2°56.024 112.9 2.6 297 -999
2008-08-05 05:30:51 51°13.631 2°56.019 113.4 2.8 297 -999
2008-08-05 05:30:56 51°13.633 2°56.013 113.6 3.1 297 -999
2008-08-05 05:31:01 51°13.635 2°56.006 113.3 3.3 296 -999
2008-08-05 05:31:06 51°13.637 2°55.999 112.6 3.4 295 -999
2008-08-05 05:31:11 51°13.639 2°55.992 111.6 3.5 293 -999
2008-08-05 05:31:16 51°13.641 2°55.985 111.1 3.6 293 -999
2008-08-05 05:31:21 51°13.643 2°55.978 111.2 3.6 293 -999
2008-08-05 05:31:26 51°13.645 2°55.97 112 3.8 293 -999
2008-08-05 05:31:31 51°13.647 2°55.962 113.2 4 295 -999
2008-08-05 05:31:37 51°13.65 2°55.952 114.8 4.1 295 -999
2008-08-05 05:31:41 51°13.652 2°55.945 116 4.2 297 -999
2008-08-05 05:31:46 51°13.655 2°55.937 116.6 4.4 297 -999
2008-08-05 05:31:51 51°13.658 2°55.928 116.8 4.4 298 -999
2008-08-05 05:31:56 51°13.66 2°55.919 116.9 4.5 297 -999
2008-08-05 05:32:01 51°13.663 2°55.911 117 4.5 298 -999
2008-08-05 05:32:06 51°13.666 2°55.902 117 4.5 298 -999
2008-08-05 05:32:11 51°13.669 2°55.893 117 4.5 298 -999
2008-08-05 05:32:16 51°13.672 2°55.884 116.7 4.4 298 -999
2008-08-05 05:32:21 51°13.675 2°55.876 116 4.3 298 -999
2008-08-05 05:32:26 51°13.677 2°55.868 115.6 4.1 298 -999
2008-08-05 05:32:31 51°13.68 2°55.86 114.9 4 297 -999
2008-08-05 05:32:36 51°13.683 2°55.852 114.1 3.9 297 -999
2008-08-05 05:32:41 51°13.685 2°55.844 113.2 3.8 296 -999
2008-08-05 05:32:46 51°13.687 2°55.837 112.3 3.7 295 -999
2008-08-05 05:32:51 51°13.689 2°55.83 111.1 3.6 295 -999
2008-08-05 05:32:56 51°13.691 2°55.822 109.9 3.6 294 -999
2008-08-05 05:33:01 51°13.693 2°55.815 108.5 3.5 293 -999
2008-08-05 05:33:06 51°13.695 2°55.808 106.9 3.4 291 -999
2008-08-05 05:33:11 51°13.697 2°55.801 105.1 3.4 290 -999
2008-08-05 05:33:16 51°13.698 2°55.794 102.4 3.3 287 -999
2008-08-05 05:33:21 51°13.699 2°55.787 100.6 3.2 286 -999
2008-08-05 05:33:26 51°13.7 2°55.781 98.3 3.1 284 -999
2008-08-05 05:33:31 51°13.701 2°55.774 96.3 2.9 283 -999
2008-08-05 05:33:36 51°13.702 2°55.768 94.3 2.8 281 -999
2008-08-05 05:33:41 51°13.703 2°55.762 93.1 2.6 280 -999
2008-08-05 05:33:46 51°13.703 2°55.757 91.4 2.5 279 -999
2008-08-05 05:33:51 51°13.704 2°55.751 90.2 2.4 277 -999
2008-08-05 05:33:56 51°13.704 2°55.746 89 2.2 277 12.7
2008-08-05 05:34:01 51°13.704 2°55.742 87.7 2.1 275 12.6
2008-08-05 05:34:06 51°13.705 2°55.738 86.2 1.9 274 12.4
2008-08-05 05:34:11 51°13.705 2°55.734 84.4 1.8 274 12.6
2008-08-05 05:34:16 51°13.705 2°55.73 82.7 1.7 273 12.6
2008-08-05 05:34:21 51°13.705 2°55.727 81.2 1.5 272 13
2008-08-05 05:34:26 51°13.705 2°55.724 79.3 1.3 271 13.3
2008-08-05 05:34:31 51°13.705 2°55.721 77.3 1.1 273 13.6
2008-08-05 05:34:36 51°13.706 2°55.719 75 0.8 275 13.9
2008-08-05 05:34:41 51°13.706 2°55.718 72.1 0.5 301 14
2008-08-05 05:34:46 51°13.706 2°55.718 68.3 0.4 347 13.9
2008-08-05 05:34:51 51°13.707 2°55.718 63.8 0.5 14 13.6
2008-08-05 05:34:56 51°13.708 2°55.719 58.7 0.8 30 13.1
2008-08-05 05:35:01 51°13.709 2°55.72 54.4 1.1 29 12.7
2008-08-05 05:35:06 51°13.711 2°55.721 47.4 1.4 28 12.4
2008-08-05 05:35:11 51°13.713 2°55.722 41.3 1.6 25 12.5
2008-08-05 05:35:16 51°13.715 2°55.724 35.3 1.8 21 13.1
2008-08-05 05:35:21 51°13.718 2°55.725 29.2 2 15 12.8
2008-08-05 05:35:26 51°13.721 2°55.726 23.2 2.4 10 12.2
2008-08-05 05:35:31 51°13.725 2°55.727 17.3 3 4 11.9
2008-08-05 05:35:36 51°13.73 2°55.727 10.3 3.5 356 11.8
2008-08-05 05:35:41 51°13.735 2°55.725 1.9 4.1 349 11.9
2008-08-05 05:35:46 51°13.742 2°55.722 353 4.7 341 11.8
2008-08-05 05:35:51 51°13.748 2°55.717 344.3 5.3 335 12
2008-08-05 05:35:56 51°13.755 2°55.711 337.1 5.9 331 11.5
2008-08-05 05:36:01 51°13.763 2°55.704 331.8 6.3 328 11.5
2008-08-05 05:36:06 51°13.77 2°55.697 328.8 6.3 329 11.4
2008-08-05 05:36:11 51°13.777 2°55.689 328 6.1 327 11.5
2008-08-05 05:36:16 51°13.785 2°55.682 327.2 6.3 329 11.7
2008-08-05 05:36:21 51°13.792 2°55.674 327.2 6.7 328 12
2008-08-05 05:36:26 51°13.801 2°55.667 327.8 7.1 329 12.1
2008-08-05 05:36:31 51°13.81 2°55.658 328.3 7.5 329 11.9
2008-08-05 05:36:36 51°13.819 2°55.65 328.9 7.9 331 12
2008-08-05 05:36:41 51°13.829 2°55.641 330.9 8.2 333 12.2
2008-08-05 05:36:46 51°13.839 2°55.633 332.9 8.4 332 12.1
2008-08-05 05:36:51 51°13.85 2°55.624 333 8.6 332 12
2008-08-05 05:36:56 51°13.861 2°55.615 332.3 8.8 332 11.6
2008-08-05 05:37:01 51°13.872 2°55.606 332.3 8.9 332 11.7
2008-08-05 05:37:06 51°13.883 2°55.597 332.7 8.9 333 11.6
2008-08-05 05:37:11 51°13.893 2°55.587 332.6 9 331 11.6
2008-08-05 05:37:16 51°13.905 2°55.578 332.3 9 334 11.7
2008-08-05 05:37:21 51°13.916 2°55.57 333 9 332 11.7
2008-08-05 05:37:26 51°13.927 2°55.561 333.5 9 332 11.8
2008-08-05 05:37:31 51°13.938 2°55.551 332.6 9 331 12
2008-08-05 05:37:36 51°13.949 2°55.542 332 9 333 12
2008-08-05 05:37:41 51°13.96 2°55.532 332.4 9.1 332 12
2008-08-05 05:37:46 51°13.971 2°55.523 332.4 9.1 332 12
2008-08-05 05:37:51 51°13.983 2°55.514 332.1 9.2 333 12
2008-08-05 05:37:56 51°13.994 2°55.504 332.5 9.2 333 11.9
2008-08-05 05:38:01 51°14.005 2°55.495 332.7 9.3 333 11.9
2008-08-05 05:38:06 51°14.017 2°55.486 333 9.3 334 11.7
2008-08-05 05:38:11 51°14.028 2°55.476 333.8 9.3 333 11.8
2008-08-05 05:38:16 51°14.04 2°55.467 333.8 9.4 333 11.8
2008-08-05 05:38:21 51°14.052 2°55.458 333.4 9.4 334 11.9
2008-08-05 05:38:26 51°14.064 2°55.449 334.2 9.4 336 12
2008-08-05 05:38:31 51°14.076 2°55.441 336.2 9.4 337 12
2008-08-05 05:38:36 51°14.088 2°55.433 337.2 9.4 336 12
2008-08-05 05:38:41 51°14.099 2°55.424 336.7 9.4 335 11.8
2008-08-05 05:38:46 51°14.111 2°55.415 335.9 9.4 336 11.8
2008-08-05 05:38:51 51°14.123 2°55.407 336.2 9.4 335 12
2008-08-05 05:38:56 51°14.135 2°55.397 335.9 9.4 333 12.1
2008-08-05 05:39:01 51°14.146 2°55.388 334.4 9.5 333 12.1
2008-08-05 05:39:06 51°14.158 2°55.379 333.8 9.6 333 12.1
2008-08-05 05:39:11 51°14.17 2°55.369 333.5 9.5 333 12.1
2008-08-05 05:39:16 51°14.182 2°55.359 333.4 9.4 332 12
2008-08-05 05:39:22 51°14.195 2°55.347 332.9 9.2 331 12
2008-08-05 05:39:26 51°14.204 2°55.339 331.6 9 330 12
2008-08-05 05:39:31 51°14.214 2°55.329 330.5 8.7 329 12
2008-08-05 05:39:36 51°14.224 2°55.32 330 8.3 329 12.1
2008-08-05 05:39:41 51°14.234 2°55.31 329.6 8 328 12.1
2008-08-05 05:39:46 51°14.243 2°55.301 328.5 7.7 326 12.1
2008-08-05 05:39:51 51°14.251 2°55.291 326.8 7.5 325 12.1
2008-08-05 05:39:56 51°14.259 2°55.282 325.3 7.2 324 12
2008-08-05 05:40:01 51°14.267 2°55.273 323.6 6.9 323 11.9
2008-08-05 05:40:06 51°14.275 2°55.264 322.4 6.8 321 11.8
2008-08-05 05:40:11 51°14.282 2°55.254 320.7 6.6 320 11.8
2008-08-05 05:40:16 51°14.289 2°55.245 319.3 6.4 319 12.2
2008-08-05 05:40:21 51°14.295 2°55.236 318.5 6.3 318 12.3
2008-08-05 05:40:26 51°14.301 2°55.226 317.3 6.2 317 12.2
2008-08-05 05:40:31 51°14.307 2°55.216 315.6 6.1 316 12
2008-08-05 05:40:36 51°14.313 2°55.207 314.6 6.1 314 11.8
2008-08-05 05:40:41 51°14.319 2°55.197 312.9 6.1 313 11.5
2008-08-05 05:40:46 51°14.324 2°55.187 311.8 6.2 312 11.3
2008-08-05 05:40:51 51°14.33 2°55.176 310.3 6.3 311 11.1
2008-08-05 05:40:56 51°14.336 2°55.166 309.1 6.5 310 11
2008-08-05 05:41:01 51°14.341 2°55.154 308 6.8 308 11.1
2008-08-05 05:41:06 51°14.348 2°55.142 307.6 7.2 309 11
2008-08-05 05:41:11 51°14.354 2°55.129 307.5 7.6 307 11.1
2008-08-05 05:41:16 51°14.361 2°55.114 306.5 8.2 306 11.3
2008-08-05 05:41:22 51°14.369 2°55.095 305.5 8.8 305 11.2
2008-08-05 05:41:26 51°14.375 2°55.082 304.2 9.4 305 11.5
2008-08-05 05:41:31 51°14.383 2°55.064 304.4 10 307 11.6
2008-08-05 05:41:36 51°14.392 2°55.046 306.1 10.5 307 11.6
2008-08-05 05:41:41 51°14.401 2°55.027 307.4 11 307 11.7
2008-08-05 05:41:46 51°14.411 2°55.007 307.2 11.4 306 11.4
2008-08-05 05:41:51 51°14.421 2°54.987 306.3 11.7 309 11.7
2008-08-05 05:41:56 51°14.432 2°54.967 308.4 11.9 313 11.6
2008-08-05 05:42:01 51°14.444 2°54.949 312 12.1 315 11.8
2008-08-05 05:42:06 51°14.457 2°54.931 315 12.2 317 11.6
2008-08-05 05:42:11 51°14.47 2°54.913 316.9 12.3 321 11.5
2008-08-05 05:42:16 51°14.484 2°54.897 320.4 12.4 325 11.5
2008-08-05 05:42:21 51°14.498 2°54.882 323.9 12.4 328 11.3
2008-08-05 05:42:26 51°14.513 2°54.868 327.6 12.4 330 11.2
2008-08-05 05:42:31 51°14.528 2°54.856 331.1 12.4 333 11.2
2008-08-05 05:42:36 51°14.544 2°54.844 333.1 12.4 335 11.1
2008-08-05 05:42:41 51°14.559 2°54.833 335.6 12.4 337 11.2
2008-08-05 05:42:46 51°14.576 2°54.822 337.9 12.5 337 10.9
2008-08-05 05:42:51 51°14.591 2°54.811 338.3 12.4 335 10.8
2008-08-05 05:42:56 51°14.607 2°54.799 337.4 12.5 335 10.8
2008-08-05 05:43:01 51°14.622 2°54.788 336.4 12.5 336 10.9
2008-08-05 05:43:07 51°14.641 2°54.774 336.3 12.5 335 10.6
2008-08-05 05:43:12 51°14.657 2°54.762 336.1 12.5 335 10.6
2008-08-05 05:43:17 51°14.673 2°54.75 336 12.5 335 10.8
2008-08-05 05:43:22 51°14.688 2°54.739 335.7 12.5 336 10.7
2008-08-05 05:43:27 51°14.705 2°54.728 335.7 12.5 337 10.7
2008-08-05 05:43:32 51°14.72 2°54.717 336.2 12.5 337 10.7
2008-08-05 05:43:37 51°14.736 2°54.706 336.6 12.4 336 10.7
2008-08-05 05:43:42 51°14.752 2°54.696 336.1 12.5 338 10.8
2008-08-05 05:43:47 51°14.768 2°54.685 336.9 12.4 338 10.7
2008-08-05 05:43:52 51°14.784 2°54.675 337.5 12.5 339 10.6
2008-08-05 05:43:57 51°14.8 2°54.666 338.1 12.4 339 10.7
2008-08-05 05:44:02 51°14.817 2°54.657 338.9 12.4 340 10.6
2008-08-05 05:44:07 51°14.833 2°54.647 339.1 12.5 340 10.7
2008-08-05 05:44:12 51°14.849 2°54.638 339.6 12.4 340 10.6
2008-08-05 05:44:17 51°14.865 2°54.628 339.6 12.5 340 10.7
2008-08-05 05:44:22 51°14.881 2°54.618 339.5 12.4 340 10.7
2008-08-05 05:44:27 51°14.898 2°54.608 339.5 12.4 338 10.6
2008-08-05 05:44:32 51°14.913 2°54.598 338.6 12.4 338 10.4
2008-08-05 05:44:37 51°14.929 2°54.586 337.5 12.3 336 10.4
2008-08-05 05:44:42 51°14.945 2°54.575 336.3 12.4 336 10.1
2008-08-05 05:44:47 51°14.96 2°54.563 335.4 12.3 334 10.1
2008-08-05 05:44:52 51°14.975 2°54.551 334.6 12.3 334 10.1
2008-08-05 05:44:57 51°14.991 2°54.539 334.1 12.3 334 10
2008-08-05 05:45:02 51°15.006 2°54.527 333.5 12.3 333 9.9
2008-08-05 05:45:07 51°15.021 2°54.515 333.2 12.3 333 9.8
2008-08-05 05:45:12 51°15.036 2°54.502 332.6 12.3 332 9.8
2008-08-05 05:45:17 51°15.051 2°54.489 332.1 12.3 332 9.7
2008-08-05 05:45:22 51°15.066 2°54.475 331.8 12.4 330 9.6
2008-08-05 05:45:27 51°15.081 2°54.462 330.9 12.4 331 9.6
2008-08-05 05:45:32 51°15.096 2°54.449 330.6 12.4 331 9.6
2008-08-05 05:45:37 51°15.111 2°54.435 330.3 12.4 331 9.7
2008-08-05 05:45:42 51°15.126 2°54.422 330.5 12.4 331 9.9
2008-08-05 05:45:47 51°15.141 2°54.409 330.4 12.4 332 9.8
2008-08-05 05:45:52 51°15.156 2°54.396 330.7 12.4 331 9.7
2008-08-05 05:45:57 51°15.172 2°54.382 330.9 12.4 331 9.7
2008-08-05 05:46:02 51°15.187 2°54.369 330.5 12.4 331 9.8
2008-08-05 05:46:07 51°15.202 2°54.356 330.5 12.4 331 9.8
2008-08-05 05:46:12 51°15.217 2°54.342 330.4 12.4 330 9.9
2008-08-05 05:46:17 51°15.232 2°54.329 329.5 12.4 330 9.9
2008-08-05 05:46:22 51°15.247 2°54.315 329.7 12.4 330 10
2008-08-05 05:46:27 51°15.261 2°54.301 329.6 12.4 330 10.2
2008-08-05 05:46:32 51°15.276 2°54.287 329.3 12.4 330 10
2008-08-05 05:46:37 51°15.291 2°54.274 329.7 12.4 331 10.1
2008-08-05 05:46:42 51°15.306 2°54.26 330.4 12.4 331 10.2
2008-08-05 05:46:47 51°15.321 2°54.247 330.6 12.4 331 10.3
2008-08-05 05:46:52 51°15.336 2°54.234 330.9 12.4 331 10.4
2008-08-05 05:46:57 51°15.351 2°54.22 331 12.4 331 10.4
2008-08-05 05:47:02 51°15.366 2°54.207 330.9 12.3 330 10.5
2008-08-05 05:47:07 51°15.381 2°54.193 330.5 12.4 330 10.7
2008-08-05 05:47:12 51°15.396 2°54.179 330 12.4 330 10.6
2008-08-05 05:47:17 51°15.411 2°54.165 330.2 12.4 330 10.7
2008-08-05 05:47:22 51°15.426 2°54.151 330.3 12.4 330 10.6
2008-08-05 05:47:27 51°15.441 2°54.138 330.2 12.4 330 10.7
2008-08-05 05:47:32 51°15.456 2°54.124 330.4 12.4 330 10.7
2008-08-05 05:47:37 51°15.471 2°54.111 330.3 12.4 330 10.8
2008-08-05 05:47:42 51°15.486 2°54.097 330.6 12.4 330 10.7
2008-08-05 05:47:47 51°15.501 2°54.084 330.8 12.5 330 11
2008-08-05 05:47:52 51°15.516 2°54.07 330.5 12.4 330 10.9
2008-08-05 05:47:57 51°15.531 2°54.056 330.4 12.5 331 11
2008-08-05 05:48:02 51°15.546 2°54.043 330.6 12.4 330 10.9
2008-08-05 05:48:07 51°15.561 2°54.029 330.8 12.5 330 11.2
2008-08-05 05:48:12 51°15.576 2°54.015 330.6 12.4 330 11.2
2008-08-05 05:48:17 51°15.591 2°54.002 330.4 12.4 330 11.5
2008-08-05 05:48:22 51°15.606 2°53.988 330.4 12.4 330 11.4
2008-08-05 05:48:27 51°15.621 2°53.974 330.4 12.5 331 11.5
2008-08-05 05:48:32 51°15.636 2°53.96 330.4 12.4 330 11.6
2008-08-05 05:48:37 51°15.651 2°53.947 330.4 12.4 330 11.4
2008-08-05 05:48:42 51°15.666 2°53.933 330.8 12.5 330 11.7
2008-08-05 05:48:47 51°15.681 2°53.92 330.8 12.4 331 11.2
2008-08-05 05:48:52 51°15.696 2°53.906 330.8 12.5 330 11.4
2008-08-05 05:48:57 51°15.71 2°53.892 330.6 12.4 329 11.6
2008-08-05 05:49:02 51°15.725 2°53.877 329.8 12.4 329 11.7
2008-08-05 05:49:07 51°15.739 2°53.862 329.2 12.4 327 11.9
2008-08-05 05:49:12 51°15.754 2°53.848 328 12.4 328 11.7
2008-08-05 05:49:17 51°15.768 2°53.833 327.9 12.4 327 11.6
2008-08-05 05:49:22 51°15.783 2°53.819 328.1 12.4 329 11.9
2008-08-05 05:49:27 51°15.798 2°53.805 328.7 12.5 329 11.9
2008-08-05 05:49:32 51°15.813 2°53.791 329.5 12.5 330 12.1
2008-08-05 05:49:37 51°15.828 2°53.776 329.7 12.5 328 12
2008-08-05 05:49:42 51°15.842 2°53.762 329.2 12.4 328 12.2
2008-08-05 05:49:47 51°15.857 2°53.747 328.6 12.4 327 12
2008-08-05 05:49:52 51°15.871 2°53.733 327.8 12.4 328 12.3
2008-08-05 05:49:57 51°15.886 2°53.718 328.2 12.4 329 12.1
2008-08-05 05:50:02 51°15.901 2°53.705 328.8 12.5 331 11.9
2008-08-05 05:50:07 51°15.916 2°53.691 330.1 12.5 330 12
2008-08-05 05:50:12 51°15.931 2°53.678 330.6 12.4 330 11.9
2008-08-05 05:50:17 51°15.946 2°53.664 330.7 12.5 330 12
2008-08-05 05:50:22 51°15.962 2°53.651 330.9 12.4 331 12.1
2008-08-05 05:50:27 51°15.977 2°53.637 331.2 12.5 330 12.1
2008-08-05 05:50:32 51°15.992 2°53.624 330.9 12.5 331 12.3
2008-08-05 05:50:37 51°16.007 2°53.611 330.9 12.5 331 12.2
2008-08-05 05:50:42 51°16.022 2°53.597 331.1 12.5 331 12.2
2008-08-05 05:50:47 51°16.037 2°53.584 331.2 12.5 331 12.1
2008-08-05 05:50:52 51°16.052 2°53.571 331.4 12.5 331 12.3
2008-08-05 05:50:57 51°16.068 2°53.557 331.3 12.5 331 12.3
2008-08-05 05:51:02 51°16.083 2°53.544 331.2 12.5 332 12.3
2008-08-05 05:51:07 51°16.098 2°53.531 331.3 12.6 331 12.4
2008-08-05 05:51:12 51°16.113 2°53.517 331.3 12.6 331 12.4
2008-08-05 05:51:17 51°16.128 2°53.504 331.1 12.5 331 12.3
2008-08-05 05:51:22 51°16.144 2°53.49 330.9 12.5 331 12.4
2008-08-05 05:51:27 51°16.159 2°53.477 330.4 12.5 331 12.3
2008-08-05 05:51:32 51°16.174 2°53.463 330.7 12.5 331 12.5
2008-08-05 05:51:37 51°16.189 2°53.45 330.9 12.5 331 12.5
2008-08-05 05:51:42 51°16.205 2°53.437 330.7 12.6 331 12.6
2008-08-05 05:51:47 51°16.22 2°53.424 330.8 12.5 331 12.5
2008-08-05 05:51:52 51°16.235 2°53.41 330.7 12.5 331 12.4
2008-08-05 05:51:57 51°16.25 2°53.397 330.7 12.5 331 12.6
2008-08-05 05:52:02 51°16.265 2°53.383 330.6 12.5 331 12.7
2008-08-05 05:52:07 51°16.28 2°53.369 330.1 12.5 329 12.6
2008-08-05 05:52:12 51°16.295 2°53.355 329 12.4 330 12.6
2008-08-05 05:52:17 51°16.31 2°53.341 328.7 12.4 329 12.6
2008-08-05 05:52:22 51°16.325 2°53.327 328.8 12.5 329 12.7
2008-08-05 05:52:27 51°16.34 2°53.313 328.6 12.6 329 12.7
2008-08-05 05:52:32 51°16.355 2°53.298 328 12.5 329 12.6
2008-08-05 05:52:37 51°16.37 2°53.284 328 12.5 329 12.6
2008-08-05 05:52:42 51°16.385 2°53.27 328.3 12.5 329 12.5
2008-08-05 05:52:47 51°16.4 2°53.256 328.1 12.5 328 12.6
2008-08-05 05:52:52 51°16.414 2°53.241 327.8 12.6 329 12.7
2008-08-05 05:52:57 51°16.429 2°53.227 327.9 12.5 329 12.6
2008-08-05 05:53:02 51°16.444 2°53.213 327.9 12.5 329 12.6
2008-08-05 05:53:07 51°16.459 2°53.199 327.9 12.5 329 12.8
2008-08-05 05:53:12 51°16.473 2°53.184 328 12.5 328 12.6
2008-08-05 05:53:17 51°16.488 2°53.17 328 12.4 329 12.5
2008-08-05 05:53:22 51°16.503 2°53.156 327.9 12.5 329 12.6
2008-08-05 05:53:27 51°16.518 2°53.141 327.6 12.5 329 12.6
2008-08-05 05:53:32 51°16.533 2°53.127 327.8 12.5 329 12.6
2008-08-05 05:53:37 51°16.548 2°53.113 328 12.5 329 12.5
2008-08-05 05:53:42 51°16.562 2°53.099 328.1 12.5 329 12.5
2008-08-05 05:53:47 51°16.577 2°53.085 328.1 12.5 330 12.5
2008-08-05 05:53:52 51°16.593 2°53.071 328.7 12.5 330 12.4
2008-08-05 05:53:57 51°16.608 2°53.057 329.4 12.5 330 12.4
2008-08-05 05:54:02 51°16.622 2°53.043 329.2 12.5 329 12.5
2008-08-05 05:54:07 51°16.637 2°53.029 328.5 12.5 330 12.3
2008-08-05 05:54:12 51°16.652 2°53.015 328.6 12.5 330 12.4
2008-08-05 05:54:17 51°16.667 2°53.001 328.7 12.4 330 12.5
2008-08-05 05:54:22 51°16.682 2°52.987 328.7 12.5 329 12.2
2008-08-05 05:54:27 51°16.697 2°52.973 328.4 12.5 329 12.1
2008-08-05 05:54:32 51°16.712 2°52.959 328.3 12.4 330 12
2008-08-05 05:54:37 51°16.727 2°52.945 328.6 12.6 330 12.1
2008-08-05 05:54:42 51°16.742 2°52.932 328.6 12.5 331 11.7
2008-08-05 05:54:47 51°16.757 2°52.918 329.2 12.5 331 11.6
2008-08-05 05:54:52 51°16.772 2°52.905 329.7 12.6 332 11.4
2008-08-05 05:54:57 51°16.788 2°52.892 330.5 12.6 332 11
2008-08-05 05:55:02 51°16.803 2°52.88 331.5 12.5 333 10.5
2008-08-05 05:55:07 51°16.818 2°52.867 332.1 12.5 332 10.4
2008-08-05 05:55:12 51°16.833 2°52.854 332 12.4 332 10.3
2008-08-05 05:55:17 51°16.849 2°52.841 331.4 12.5 333 10.2
2008-08-05 05:55:22 51°16.864 2°52.828 331.8 12.5 333 10
2008-08-05 05:55:27 51°16.88 2°52.815 332 12.5 331 10.1
2008-08-05 05:55:32 51°16.895 2°52.802 330.9 12.5 332 10
2008-08-05 05:55:37 51°16.91 2°52.789 330.6 12.5 332 10.1
2008-08-05 05:55:42 51°16.926 2°52.777 331.5 12.5 335 10.2
2008-08-05 05:55:47 51°16.941 2°52.765 333 12.5 333 10.4
2008-08-05 05:55:52 51°16.957 2°52.753 332.7 12.6 336 10.4
2008-08-05 05:55:57 51°16.974 2°52.743 334.5 12.6 339 10.6
2008-08-05 05:56:02 51°16.99 2°52.733 337.4 12.6 339 10.5
2008-08-05 05:56:07 51°17.007 2°52.725 338.9 12.5 342 10.7
2008-08-05 05:56:12 51°17.023 2°52.717 340.2 12.5 343 10.8
2008-08-05 05:56:17 51°17.04 2°52.71 342.3 12.6 345 10.9
2008-08-05 05:56:22 51°17.057 2°52.703 344.5 12.6 346 10.9
2008-08-05 05:56:27 51°17.074 2°52.697 345.6 12.6 347 10.9
2008-08-05 05:56:32 51°17.091 2°52.691 346.4 12.6 347 10.9
2008-08-05 05:56:37 51°17.108 2°52.686 347.5 12.5 349 10.5
2008-08-05 05:56:42 51°17.125 2°52.68 348.2 12.6 349 10.6
2008-08-05 05:56:47 51°17.142 2°52.674 348.7 12.5 348 10.3
2008-08-05 05:56:52 51°17.16 2°52.67 348.7 12.6 350 10.4
2008-08-05 05:56:57 51°17.177 2°52.666 349.5 12.6 352 10.7
2008-08-05 05:57:02 51°17.194 2°52.664 352 12.7 356 10.6
2008-08-05 05:57:07 51°17.212 2°52.661 354.3 12.7 354 10.6
2008-08-05 05:57:12 51°17.23 2°52.661 355.5 12.7 359 10.6
2008-08-05 05:57:17 51°17.247 2°52.658 357.4 12.7 356 10.5
2008-08-05 05:57:22 51°17.265 2°52.658 358 12.7 359 10.6
2008-08-05 05:57:27 51°17.282 2°52.658 359 12.8 358 10.6
2008-08-05 05:57:32 51°17.3 2°52.657 359.8 12.7 359 10.7
2008-08-05 05:57:37 51°17.318 2°52.657 359.8 12.7 -999 10.7
2008-08-05 05:57:42 51°17.335 2°52.656 0.2 12.7 358 10.9
2008-08-05 05:57:47 51°17.353 2°52.656 0.4 12.8 359 10.9
2008-08-05 05:57:52 51°17.371 2°52.655 0.1 12.8 359 10.8
2008-08-05 05:57:57 51°17.389 2°52.654 359.4 12.8 357 10.7
2008-08-05 05:58:02 51°17.406 2°52.653 358.2 12.7 357 10.7
2008-08-05 05:58:07 51°17.424 2°52.652 358.3 12.8 359 10.9
2008-08-05 05:58:12 51°17.442 2°52.65 359 12.8 357 11
2008-08-05 05:58:17 51°17.46 2°52.651 358.5 12.8 359 11
2008-08-05 05:58:22 51°17.477 2°52.649 359.1 12.7 358 10.8
2008-08-05 05:58:27 51°17.495 2°52.649 359.2 12.7 -999 11.2
2008-08-05 05:58:32 51°17.512 2°52.647 359.3 12.7 357 10.9
2008-08-05 05:58:37 51°17.53 2°52.647 358.7 12.6 359 11.1
2008-08-05 05:58:42 51°17.547 2°52.646 359.1 12.7 357 11
2008-08-05 05:58:47 51°17.565 2°52.644 358.6 12.7 356 11.2
2008-08-05 05:58:52 51°17.583 2°52.643 357.7 12.7 358 11.2
2008-08-05 05:58:57 51°17.6 2°52.641 358.1 12.7 357 11.3
2008-08-05 05:59:02 51°17.618 2°52.641 358.3 12.7 358 11.1
2008-08-05 05:59:07 51°17.635 2°52.641 358.6 12.7 -999 11
2008-08-05 05:59:12 51°17.653 2°52.641 359.1 12.6 2 11.2
2008-08-05 05:59:17 51°17.67 2°52.645 2.8 12.6 7 11
2008-08-05 05:59:22 51°17.688 2°52.648 6 12.7 8 11.2
2008-08-05 05:59:27 51°17.705 2°52.653 8.7 12.7 8 11
2008-08-05 05:59:32 51°17.722 2°52.658 9.8 12.6 11 11.2
2008-08-05 05:59:37 51°17.739 2°52.663 11.5 12.6 11 11
2008-08-05 05:59:42 51°17.757 2°52.669 12.5 12.7 13 11.1
2008-08-05 05:59:47 51°17.774 2°52.674 13.1 12.6 10 11.3
2008-08-05 05:59:52 51°17.791 2°52.682 13.2 12.7 15 11
2008-08-05 05:59:57 51°17.808 2°52.686 14.4 12.6 10 11.2
2008-08-05 06:00:02 51°17.825 2°52.694 13.7 12.7 15 11
2008-08-05 06:00:07 51°17.842 2°52.699 15.1 12.6 11 11.1
2008-08-05 06:00:12 51°17.859 2°52.707 14.5 12.5 15 11.2
2008-08-05 06:00:17 51°17.876 2°52.713 15.6 12.7 13 11.2
2008-08-05 06:00:22 51°17.894 2°52.718 15.2 12.6 11 11.1
2008-08-05 06:00:27 51°17.91 2°52.726 13.6 12.7 16 10.9
2008-08-05 06:00:32 51°17.928 2°52.73 15.4 12.7 8 11
2008-08-05 06:00:37 51°17.945 2°52.737 13 12.6 15 11.1
2008-08-05 06:00:42 51°17.962 2°52.741 13.6 12.8 8 11.4
2008-08-05 06:00:47 51°17.979 2°52.747 12.1 12.6 13 11.3
2008-08-05 06:00:52 51°17.997 2°52.752 13 12.7 9 11.3
2008-08-05 06:00:57 51°18.014 2°52.757 12.3 12.7 12 11.2
2008-08-05 06:01:02 51°18.031 2°52.762 12.6 12.7 9 11.3
2008-08-05 06:01:07 51°18.048 2°52.767 11.9 12.7 10 11.5
2008-08-05 06:01:12 51°18.066 2°52.771 11.5 12.7 8 11.5
2008-08-05 06:01:17 51°18.083 2°52.776 10.6 12.7 10 11.4
2008-08-05 06:01:22 51°18.101 2°52.781 11.3 12.7 10 11.5
2008-08-05 06:01:27 51°18.118 2°52.785 11.2 12.6 9 11.3
2008-08-05 06:01:32 51°18.135 2°52.791 11.3 12.7 11 11.3
2008-08-05 06:01:37 51°18.153 2°52.795 11.8 12.7 10 11.4
2008-08-05 06:01:42 51°18.17 2°52.8 11.6 12.7 10 11.7
2008-08-05 06:01:47 51°18.187 2°52.805 11.3 12.7 10 11.6
2008-08-05 06:01:52 51°18.205 2°52.809 11.5 12.7 8 11.6
2008-08-05 06:01:57 51°18.222 2°52.812 10.4 12.6 7 11.6
2008-08-05 06:02:02 51°18.239 2°52.816 9.3 12.7 8 11.7
2008-08-05 06:02:07 51°18.257 2°52.82 9.3 12.7 7 11.5
2008-08-05 06:02:12 51°18.274 2°52.824 9.3 12.6 8 11.5
2008-08-05 06:02:17 51°18.292 2°52.827 9.3 12.7 6 11.6
2008-08-05 06:02:22 51°18.309 2°52.83 8.5 12.7 7 11.6
2008-08-05 06:02:27 51°18.326 2°52.834 8.6 12.6 7 11.7
2008-08-05 06:02:32 51°18.344 2°52.838 8.6 12.7 8 12
2008-08-05 06:02:37 51°18.361 2°52.842 9.6 12.7 8 11.9
2008-08-05 06:02:42 51°18.379 2°52.847 10.1 12.7 9 11.8
2008-08-05 06:02:47 51°18.396 2°52.849 10.4 12.6 6 11.9
2008-08-05 06:02:52 51°18.414 2°52.855 9.3 12.7 10 11.9
2008-08-05 06:02:57 51°18.431 2°52.857 10.1 12.7 5 12
2008-08-05 06:03:02 51°18.448 2°52.862 8.5 12.6 10 12.1
2008-08-05 06:03:07 51°18.466 2°52.865 8.9 12.6 7 12
2008-08-05 06:03:12 51°18.483 2°52.87 9.5 12.7 12 12.1
2008-08-05 06:03:17 51°18.501 2°52.874 11.3 12.7 7 12.1
2008-08-05 06:03:22 51°18.518 2°52.88 10.7 12.7 13 12.1
2008-08-05 06:03:27 51°18.535 2°52.886 11.6 12.6 12 12.1
2008-08-05 06:03:32 51°18.551 2°52.896 14 12.5 20 12.1
2008-08-05 06:03:37 51°18.567 2°52.905 19.8 12.6 19 12
2008-08-05 06:03:42 51°18.583 2°52.918 21.5 12.5 28 12.1
2008-08-05 06:03:47 51°18.598 2°52.932 26.6 12.4 29 12.1
2008-08-05 06:03:52 51°18.613 2°52.946 30.1 12.5 31 12.2
2008-08-05 06:03:57 51°18.627 2°52.962 32.3 12.5 35 12.2
2008-08-05 06:04:02 51°18.642 2°52.977 35.8 12.5 33 12.2
2008-08-05 06:04:07 51°18.655 2°52.995 36.5 12.5 39 12.2
2008-08-05 06:04:12 51°18.669 2°53.011 39.2 12.6 36 12.2
2008-08-05 06:04:17 51°18.682 2°53.03 39.8 12.5 42 12.2
2008-08-05 06:04:22 51°18.695 2°53.048 41.7 12.5 42 12.3
2008-08-05 06:04:27 51°18.706 2°53.069 44.3 12.4 48 12.3
2008-08-05 06:04:32 51°18.718 2°53.088 47.8 12.4 47 12.2
2008-08-05 06:04:37 51°18.729 2°53.11 50.4 12.4 51 12.2
2008-08-05 06:04:42 51°18.74 2°53.13 52.1 12.4 48 12.2
2008-08-05 06:04:47 51°18.75 2°53.153 52.2 12.4 54 12.3
2008-08-05 06:04:52 51°18.762 2°53.173 53.7 12.5 49 12.3
2008-08-05 06:04:57 51°18.771 2°53.197 53.8 12.5 56 12.4
2008-08-05 06:05:02 51°18.783 2°53.217 55.1 12.5 48 12.4
2008-08-05 06:05:07 51°18.792 2°53.24 53.7 12.4 58 12.4
2008-08-05 06:05:12 51°18.803 2°53.261 56.2 12.4 50 12.4
2008-08-05 06:05:17 51°18.813 2°53.284 55.7 12.4 55 12.4
2008-08-05 06:05:22 51°18.824 2°53.305 55.4 12.3 51 12.3
2008-08-05 06:05:27 51°18.834 2°53.327 55.1 12.3 54 12.4
2008-08-05 06:05:32 51°18.844 2°53.348 55.1 12.4 52 12.4
2008-08-05 06:05:37 51°18.854 2°53.37 54.9 12.2 54 12.4
2008-08-05 06:05:42 51°18.864 2°53.393 55.8 12.4 55 12.5
2008-08-05 06:05:47 51°18.875 2°53.414 57.2 12.5 49 12.4
2008-08-05 06:05:52 51°18.885 2°53.437 54.4 12.4 57 12.4
2008-08-05 06:05:57 51°18.896 2°53.457 55.8 12.5 48 12.5
2008-08-05 06:06:02 51°18.906 2°53.48 54.2 12.4 56 12.5
2008-08-05 06:06:07 51°18.917 2°53.501 54.8 12.4 50 12.4
2008-08-05 06:06:12 51°18.927 2°53.523 54.4 12.3 54 12.5
2008-08-05 06:06:17 51°18.938 2°53.544 54.6 12.4 54 12.5
2008-08-05 06:06:22 51°18.948 2°53.567 55.1 12.4 54 12.5
2008-08-05 06:06:27 51°18.958 2°53.589 55.6 12.4 54 12.6
2008-08-05 06:06:32 51°18.969 2°53.611 56 12.4 53 12.5
2008-08-05 06:06:37 51°18.979 2°53.633 56 12.4 54 12.6
2008-08-05 06:06:42 51°18.989 2°53.655 55.9 12.4 52 12.5
2008-08-05 06:06:47 51°19 2°53.677 55.4 12.5 53 12.4
2008-08-05 06:06:52 51°19.011 2°53.697 54.4 12.5 50 12.6
2008-08-05 06:06:57 51°19.021 2°53.72 53.6 12.4 53 12.6
2008-08-05 06:07:02 51°19.032 2°53.741 54.2 12.4 50 12.7
2008-08-05 06:07:07 51°19.042 2°53.763 54 12.5 55 12.4
2008-08-05 06:07:12 51°19.053 2°53.784 55.4 12.5 50 12.5
2008-08-05 06:07:17 51°19.063 2°53.806 54.6 12.3 53 12.6
2008-08-05 06:07:22 51°19.074 2°53.828 55 12.5 52 12.5
2008-08-05 06:07:27 51°19.085 2°53.85 55.4 12.4 52 12.6
2008-08-05 06:07:32 51°19.095 2°53.872 54.4 12.4 52 12.7
2008-08-05 06:07:37 51°19.106 2°53.893 54.8 12.5 52 12.6
2008-08-05 06:07:42 51°19.116 2°53.915 54.6 12.3 52 12.6
2008-08-05 06:07:47 51°19.127 2°53.937 54.6 12.5 53 12.7
2008-08-05 06:07:52 51°19.138 2°53.958 55.1 12.5 50 12.5
2008-08-05 06:07:57 51°19.148 2°53.98 54.1 12.4 54 12.5
2008-08-05 06:08:02 51°19.159 2°54.001 54.9 12.3 51 12.5
2008-08-05 06:08:07 51°19.169 2°54.023 54.5 12.3 54 12.6
2008-08-05 06:08:12 51°19.18 2°54.045 55.1 12.4 51 12.6
2008-08-05 06:08:17 51°19.19 2°54.066 55.3 12.4 52 12.6
2008-08-05 06:08:22 51°19.201 2°54.087 54.9 12.3 51 12.6
2008-08-05 06:08:27 51°19.211 2°54.109 54.7 12.4 53 12.5
2008-08-05 06:08:32 51°19.222 2°54.13 54.5 12.5 49 12.5
2008-08-05 06:08:37 51°19.233 2°54.151 53.5 12.4 49 12.5
2008-08-05 06:08:42 51°19.245 2°54.173 52.4 12.5 50 12.6
2008-08-05 06:08:47 51°19.256 2°54.194 52.5 12.5 50 12.5
2008-08-05 06:08:52 51°19.267 2°54.215 52.8 12.5 51 12.6
2008-08-05 06:08:57 51°19.278 2°54.237 53.2 12.4 50 12.6
2008-08-05 06:09:02 51°19.288 2°54.259 53.4 12.4 53 12.5
2008-08-05 06:09:07 51°19.299 2°54.28 54.6 12.5 50 12.6
2008-08-05 06:09:12 51°19.31 2°54.301 53.5 12.4 52 12.6
2008-08-05 06:09:17 51°19.321 2°54.323 53.6 12.4 52 12.7
2008-08-05 06:09:22 51°19.332 2°54.344 54.6 12.4 50 12.5
2008-08-05 06:09:27 51°19.342 2°54.366 53.6 12.4 51 12.6
2008-08-05 06:09:32 51°19.353 2°54.387 53.6 12.5 51 12.6
2008-08-05 06:09:37 51°19.365 2°54.408 53.7 12.4 49 12.6
2008-08-05 06:09:42 51°19.375 2°54.429 52.4 12.3 52 12.7
2008-08-05 06:09:47 51°19.387 2°54.45 53 12.4 49 12.6
2008-08-05 06:09:52 51°19.398 2°54.471 52.4 12.4 50 12.6
2008-08-05 06:09:57 51°19.409 2°54.492 52.9 12.4 50 12.6
2008-08-05 06:10:02 51°19.42 2°54.513 52.9 12.3 50 12.6
2008-08-05 06:10:07 51°19.43 2°54.534 52.7 12.3 52 12.6
2008-08-05 06:10:12 51°19.441 2°54.555 53.8 12.3 51 12.6
2008-08-05 06:10:17 51°19.452 2°54.577 54.2 12.4 51 12.7
2008-08-05 06:10:22 51°19.463 2°54.598 54.1 12.4 51 12.7
2008-08-05 06:10:27 51°19.473 2°54.619 54 12.3 51 12.7
2008-08-05 06:10:32 51°19.484 2°54.64 53.6 12.3 51 12.7
2008-08-05 06:10:37 51°19.495 2°54.662 54 12.5 52 12.8
2008-08-05 06:10:42 51°19.506 2°54.683 54.2 12.4 50 12.8
2008-08-05 06:10:47 51°19.516 2°54.705 53.4 12.3 53 12.7
2008-08-05 06:10:52 51°19.528 2°54.725 54.3 12.3 48 12.7
2008-08-05 06:10:57 51°19.539 2°54.746 52.8 12.3 51 12.7
2008-08-05 06:11:02 51°19.55 2°54.767 52.2 12.4 48 12.7
2008-08-05 06:11:07 51°19.562 2°54.787 51.7 12.4 48 12.7
2008-08-05 06:11:12 51°19.573 2°54.808 50.8 12.4 47 12.6
2008-08-05 06:11:17 51°19.584 2°54.829 50.3 12.4 50 12.9
2008-08-05 06:11:22 51°19.596 2°54.849 51.5 12.5 47 12.8
2008-08-05 06:11:27 51°19.607 2°54.871 51.4 12.5 52 12.7
2008-08-05 06:11:32 51°19.619 2°54.89 52.5 12.4 46 12.8
2008-08-05 06:11:37 51°19.629 2°54.913 51.3 12.4 53 12.8
2008-08-05 06:11:42 51°19.641 2°54.933 53.3 12.6 48 12.7
2008-08-05 06:11:47 51°19.651 2°54.955 53 12.4 51 12.7
2008-08-05 06:11:52 51°19.662 2°54.976 53.1 12.2 52 12.8
2008-08-05 06:11:57 51°19.672 2°54.998 54.7 12.5 53 12.7
2008-08-05 06:12:02 51°19.683 2°55.019 55.1 12.5 50 12.8
2008-08-05 06:12:07 51°19.693 2°55.042 54.1 12.3 55 12.9
2008-08-05 06:12:12 51°19.704 2°55.063 55.9 12.4 51 13
2008-08-05 06:12:17 51°19.714 2°55.085 55.7 12.3 54 12.9
2008-08-05 06:12:22 51°19.725 2°55.107 55.8 12.3 52 12.9
2008-08-05 06:12:27 51°19.735 2°55.128 55.4 12.3 53 12.8
2008-08-05 06:12:32 51°19.746 2°55.15 55.8 12.4 52 12.9
2008-08-05 06:12:37 51°19.757 2°55.17 54.7 12.3 51 12.8
2008-08-05 06:12:42 51°19.768 2°55.191 53.6 12.3 49 12.8
2008-08-05 06:12:47 51°19.779 2°55.211 53.1 12.4 49 12.9
2008-08-05 06:12:52 51°19.79 2°55.232 52.7 12.3 49 13
2008-08-05 06:12:57 51°19.801 2°55.253 52.1 12.4 50 12.8
2008-08-05 06:13:02 51°19.812 2°55.274 52.7 12.4 49 12.8
2008-08-05 06:13:07 51°19.822 2°55.295 52.3 12.3 54 12.9
2008-08-05 06:13:12 51°19.833 2°55.317 54.3 12.5 51 12.9
2008-08-05 06:13:17 51°19.844 2°55.339 54.9 12.4 51 13.1
2008-08-05 06:13:22 51°19.854 2°55.361 54.2 12.4 52 13
2008-08-05 06:13:27 51°19.865 2°55.383 54.3 12.5 51 12.8
2008-08-05 06:13:32 51°19.876 2°55.404 54.3 12.4 51 12.8
2008-08-05 06:13:37 51°19.886 2°55.426 54.1 12.4 53 12.9
2008-08-05 06:13:42 51°19.897 2°55.447 55.2 12.4 50 12.8
2008-08-05 06:13:47 51°19.908 2°55.469 54.7 12.2 52 12.8
2008-08-05 06:13:52 51°19.918 2°55.491 54.6 12.4 54 12.8
2008-08-05 06:13:57 51°19.929 2°55.511 55.1 12.4 48 12.9
2008-08-05 06:14:02 51°19.939 2°55.534 54 12.3 55 12.9
2008-08-05 06:14:07 51°19.95 2°55.555 55.5 12.5 50 13
2008-08-05 06:14:12 51°19.961 2°55.577 54.7 12.3 53 13
2008-08-05 06:14:17 51°19.971 2°55.599 54.8 12.4 53 13.1
2008-08-05 06:14:22 51°19.982 2°55.62 55.9 12.6 51 12.9
2008-08-05 06:14:27 51°19.992 2°55.642 54.9 12.3 53 13.1
2008-08-05 06:14:32 51°20.002 2°55.664 55.6 12.3 53 13.1
2008-08-05 06:14:37 51°20.013 2°55.685 55.9 12.3 51 13
2008-08-05 06:14:42 51°20.023 2°55.707 55.1 12.3 53 13
2008-08-05 06:14:47 51°20.033 2°55.729 54.9 12.4 52 13.1
2008-08-05 06:14:52 51°20.044 2°55.75 55.1 12.4 52 13.2
2008-08-05 06:14:57 51°20.054 2°55.772 54.6 12.3 53 13
2008-08-05 06:15:02 51°20.064 2°55.793 55.3 12.3 53 13
2008-08-05 06:15:07 51°20.075 2°55.815 55.9 12.5 52 13
2008-08-05 06:15:12 51°20.086 2°55.836 55.2 12.2 51 13
2008-08-05 06:15:17 51°20.096 2°55.857 54.3 12.1 53 13
2008-08-05 06:15:22 51°20.107 2°55.878 55.5 12.2 50 12.9
2008-08-05 06:15:27 51°20.117 2°55.9 54 12.1 53 13
2008-08-05 06:15:32 51°20.127 2°55.922 55.3 12.3 54 13.1
2008-08-05 06:15:37 51°20.138 2°55.943 56.3 12.3 50 13
2008-08-05 06:15:42 51°20.147 2°55.965 54.6 12 56 13
2008-08-05 06:15:47 51°20.158 2°55.986 56.4 12.4 51 13
2008-08-05 06:15:52 51°20.169 2°56.007 55.1 12.2 52 13
2008-08-05 06:15:57 51°20.178 2°56.028 54.4 12 54 13
2008-08-05 06:16:02 51°20.189 2°56.05 55.5 12.3 51 13
2008-08-05 06:16:07 51°20.201 2°56.07 54.3 12.3 49 13
2008-08-05 06:16:12 51°20.211 2°56.092 52.8 12.2 53 13.1
2008-08-05 06:16:17 51°20.222 2°56.112 54.1 12.3 48 13.2
2008-08-05 06:16:22 51°20.233 2°56.133 52.5 12.2 50 13.1
2008-08-05 06:16:27 51°20.244 2°56.153 52.5 12.2 50 13.1
2008-08-05 06:16:32 51°20.255 2°56.174 53.4 12.2 48 12.9
2008-08-05 06:16:37 51°20.266 2°56.195 52.2 12.2 50 13.2
2008-08-05 06:16:42 51°20.277 2°56.215 52.2 12.3 49 13.1
2008-08-05 06:16:47 51°20.288 2°56.235 51.8 12.2 48 13
2008-08-05 06:16:52 51°20.299 2°56.256 51.4 12.2 51 13
2008-08-05 06:16:57 51°20.311 2°56.275 52.4 12.3 45 13.1
2008-08-05 06:17:02 51°20.321 2°56.296 50.6 12.2 52 13
2008-08-05 06:17:07 51°20.333 2°56.316 52.1 12.3 46 13
2008-08-05 06:17:12 51°20.344 2°56.337 50.8 12.3 51 13.1
2008-08-05 06:17:17 51°20.355 2°56.358 52.2 12.5 48 13.1
2008-08-05 06:17:22 51°20.367 2°56.378 51.8 12.3 48 13
2008-08-05 06:17:27 51°20.376 2°56.4 51.8 12.2 54 13
2008-08-05 06:17:32 51°20.388 2°56.421 54.4 12.4 49 13
2008-08-05 06:17:37 51°20.398 2°56.442 53.8 12.2 53 13.1
2008-08-05 06:17:42 51°20.408 2°56.464 55.3 12.4 52 13
2008-08-05 06:17:47 51°20.419 2°56.485 55.2 12.3 50 13
2008-08-05 06:17:52 51°20.428 2°56.507 54.3 12.2 56 13.1
2008-08-05 06:17:57 51°20.44 2°56.527 55.7 12.2 49 13.1
2008-08-05 06:18:02 51°20.45 2°56.549 54 12.1 54 13
2008-08-05 06:18:07 51°20.46 2°56.571 55.6 12.4 53 13
2008-08-05 06:18:12 51°20.471 2°56.592 56 12.3 52 13.1
2008-08-05 06:18:17 51°20.479 2°56.615 55.6 12.1 58 13.2
2008-08-05 06:18:22 51°20.49 2°56.636 57.9 12.3 51 13.1
2008-08-05 06:18:27 51°20.499 2°56.66 56.9 12.4 58 13
2008-08-05 06:18:32 51°20.51 2°56.681 58.1 12.3 52 13
2008-08-05 06:18:37 51°20.519 2°56.704 57.1 12.2 57 13.1
2008-08-05 06:18:42 51°20.528 2°56.726 58.1 12.3 55 13
2008-08-05 06:18:47 51°20.539 2°56.748 58.2 12.3 54 13
2008-08-05 06:18:52 51°20.548 2°56.771 57.5 12.3 57 13
2008-08-05 06:18:57 51°20.558 2°56.792 58.8 12.3 53 12.9
2008-08-05 06:19:02 51°20.568 2°56.815 58 12.3 56 13
2008-08-05 06:19:07 51°20.578 2°56.836 57 12.3 52 13.1
2008-08-05 06:19:12 51°20.588 2°56.859 56.3 12.3 54 13
2008-08-05 06:19:17 51°20.599 2°56.879 55.9 12.3 51 13
2008-08-05 06:19:22 51°20.609 2°56.901 54.9 12.3 53 13
2008-08-05 06:19:27 51°20.62 2°56.922 55.3 12.3 51 12.9
2008-08-05 06:19:32 51°20.631 2°56.943 55 12.2 51 13
2008-08-05 06:19:37 51°20.641 2°56.965 54 12.3 51 13
2008-08-05 06:19:42 51°20.652 2°56.986 54.7 12.2 51 13
2008-08-05 06:19:47 51°20.662 2°57.008 54.1 12.2 54 13
2008-08-05 06:19:52 51°20.673 2°57.029 55.4 12.2 51 13
2008-08-05 06:19:57 51°20.682 2°57.051 55.2 12.2 54 12.9
2008-08-05 06:20:02 51°20.693 2°57.072 55.8 12.2 52 13
2008-08-05 06:20:07 51°20.703 2°57.094 56 12.2 54 13
2008-08-05 06:20:12 51°20.713 2°57.115 55.8 12.3 53 13.1
2008-08-05 06:20:17 51°20.724 2°57.137 56.4 12.3 53 13.1
2008-08-05 06:20:22 51°20.734 2°57.159 55.8 12.2 53 13
2008-08-05 06:20:27 51°20.745 2°57.18 56.1 12.3 51 13
2008-08-05 06:20:32 51°20.755 2°57.2 54.5 12.2 50 13
2008-08-05 06:20:37 51°20.765 2°57.222 53.9 12.2 54 13
2008-08-05 06:20:42 51°20.777 2°57.242 54.8 12.3 46 12.9
2008-08-05 06:20:47 51°20.787 2°57.264 52.6 12.2 55 12.9
2008-08-05 06:20:52 51°20.798 2°57.284 54.8 12.3 47 13
2008-08-05 06:20:57 51°20.808 2°57.306 53.4 12.2 55 13
2008-08-05 06:21:02 51°20.819 2°57.327 54.9 12.3 49 13
2008-08-05 06:21:07 51°20.829 2°57.348 54.8 12.1 53 12.9
2008-08-05 06:21:12 51°20.839 2°57.37 55.3 12.2 53 13
2008-08-05 06:21:17 51°20.85 2°57.391 55.4 12.2 51 12.9
2008-08-05 06:21:22 51°20.86 2°57.413 54.8 12.2 54 12.8
2008-08-05 06:21:27 51°20.871 2°57.433 55.8 12.2 48 12.8
2008-08-05 06:21:32 51°20.881 2°57.455 54.3 12.2 55 12.8
2008-08-05 06:21:37 51°20.892 2°57.475 55.6 12.3 48 12.9
2008-08-05 06:21:42 51°20.903 2°57.497 54.2 12.2 52 12.9
2008-08-05 06:21:47 51°20.913 2°57.518 53.6 12.1 51 13
2008-08-05 06:21:52 51°20.924 2°57.538 54.3 12.1 51 13
2008-08-05 06:21:57 51°20.934 2°57.56 54.3 12.2 52 12.8
2008-08-05 06:22:02 51°20.945 2°57.58 54.5 12.2 49 12.9
2008-08-05 06:22:07 51°20.956 2°57.601 53 12.2 52 13
2008-08-05 06:22:12 51°20.967 2°57.621 53.5 12.2 48 12.8
2008-08-05 06:22:17 51°20.977 2°57.643 52.8 12.3 54 12.9
2008-08-05 06:22:22 51°20.989 2°57.664 54.7 12.4 48 13
2008-08-05 06:22:27 51°20.998 2°57.686 54.1 12.2 55 12.9
2008-08-05 06:22:32 51°21.009 2°57.707 56.1 12.3 50 12.9
2008-08-05 06:22:37 51°21.02 2°57.728 55.4 12.1 51 12.9
2008-08-05 06:22:42 51°21.029 2°57.751 54.9 12.2 55 12.9
2008-08-05 06:22:47 51°21.041 2°57.77 56.4 12.3 47 12.9
2008-08-05 06:22:52 51°21.05 2°57.793 53.9 12.2 58 12.9
2008-08-05 06:22:57 51°21.061 2°57.813 56.4 12.3 49 12.9
2008-08-05 06:23:02 51°21.071 2°57.835 55.5 12.2 54 12.9
2008-08-05 06:23:07 51°21.082 2°57.857 54.8 12.2 52 12.9
2008-08-05 06:23:12 51°21.093 2°57.878 55.8 12.3 51 12.9
2008-08-05 06:23:17 51°21.103 2°57.899 54.5 12.2 51 12.9
2008-08-05 06:23:22 51°21.114 2°57.92 54.6 12.2 50 12.8
2008-08-05 06:23:27 51°21.124 2°57.941 54.1 12.2 52 12.9
2008-08-05 06:23:32 51°21.135 2°57.962 54.3 12.2 51 12.9
2008-08-05 06:23:37 51°21.146 2°57.982 54.1 12.1 51 12.9
2008-08-05 06:23:42 51°21.156 2°58.004 54.1 12.3 51 12.9
2008-08-05 06:23:47 51°21.168 2°58.023 53.5 12.2 48 12.9
2008-08-05 06:23:52 51°21.177 2°58.046 52.9 12.1 54 12.9
2008-08-05 06:23:57 51°21.189 2°58.065 54.3 12.2 48 13
2008-08-05 06:24:02 51°21.2 2°58.086 53.2 12.1 51 13
2008-08-05 06:24:07 51°21.21 2°58.107 52.9 12.2 51 13
2008-08-05 06:24:12 51°21.221 2°58.128 53.8 12.2 51 12.9
2008-08-05 06:24:17 51°21.231 2°58.149 53.8 12.2 53 12.9
2008-08-05 06:24:22 51°21.242 2°58.17 54.9 12.2 51 13
2008-08-05 06:24:27 51°21.252 2°58.191 55 12.2 52 12.9
2008-08-05 06:24:32 51°21.263 2°58.212 54.5 12.2 51 12.9
2008-08-05 06:24:37 51°21.274 2°58.233 54.3 12.2 51 12.7
2008-08-05 06:24:42 51°21.285 2°58.254 53.4 12 51 12.8
2008-08-05 06:24:47 51°21.295 2°58.275 53.7 12.2 51 12.9
2008-08-05 06:24:52 51°21.306 2°58.296 54.3 12.2 50 12.9
2008-08-05 06:24:57 51°21.316 2°58.318 53.7 12.2 55 12.9
2008-08-05 06:25:02 51°21.326 2°58.34 55.3 12.3 51 12.7
2008-08-05 06:25:07 51°21.337 2°58.361 55.2 12.2 52 12.9
2008-08-05 06:25:12 51°21.347 2°58.383 54.8 12.3 54 12.8
2008-08-05 06:25:17 51°21.358 2°58.403 55.9 12.3 50 12.9
2008-08-05 06:25:22 51°21.367 2°58.425 54.7 12.2 54 12.8
2008-08-05 06:25:27 51°21.378 2°58.446 55.5 12.1 52 12.7
2008-08-05 06:25:32 51°21.388 2°58.468 55.7 12.2 54 12.8
2008-08-05 06:25:37 51°21.399 2°58.489 55.9 12.1 50 12.9
2008-08-05 06:25:42 51°21.409 2°58.511 55 12.1 54 12.9
2008-08-05 06:25:47 51°21.419 2°58.532 55.6 12.2 51 12.8
2008-08-05 06:25:52 51°21.429 2°58.554 55.7 12.2 55 12.7
2008-08-05 06:25:57 51°21.44 2°58.575 56.5 12.3 51 12.7
2008-08-05 06:26:02 51°21.45 2°58.596 55.5 12.1 53 12.8
2008-08-05 06:26:07 51°21.459 2°58.619 55.1 12.3 55 12.8
2008-08-05 06:26:12 51°21.471 2°58.639 56.5 12.4 47 12.8
2008-08-05 06:26:17 51°21.48 2°58.662 54.1 12.3 57 12.7
2008-08-05 06:26:22 51°21.492 2°58.681 55.8 12.2 46 12.9
2008-08-05 06:26:27 51°21.502 2°58.704 53.8 12.1 54 13
2008-08-05 06:26:32 51°21.513 2°58.724 54.4 12.2 49 12.9
2008-08-05 06:26:37 51°21.523 2°58.745 54.2 12.2 53 12.9
2008-08-05 06:26:42 51°21.535 2°58.765 53.9 12.2 48 12.8
2008-08-05 06:26:47 51°21.545 2°58.786 53.2 12.1 53 12.7
2008-08-05 06:26:52 51°21.555 2°58.808 53.9 12.1 52 12.8
2008-08-05 06:26:57 51°21.566 2°58.829 54.7 12.2 51 12.7
2008-08-05 06:27:02 51°21.576 2°58.85 54.8 12.1 52 12.7
2008-08-05 06:27:07 51°21.587 2°58.871 54.4 12.1 52 12.8
2008-08-05 06:27:12 51°21.597 2°58.892 54.7 12.2 52 12.7
2008-08-05 06:27:17 51°21.608 2°58.912 55.1 12.1 51 12.6
2008-08-05 06:27:22 51°21.618 2°58.934 54.6 12.1 54 12.7
2008-08-05 06:27:27 51°21.629 2°58.954 55.4 12.2 48 12.6
2008-08-05 06:27:32 51°21.639 2°58.976 54.1 12.1 52 12.6
2008-08-05 06:27:37 51°21.65 2°58.997 54.4 12.2 51 12.5
2008-08-05 06:27:42 51°21.661 2°59.018 55.1 12.2 51 12.5
2008-08-05 06:27:47 51°21.671 2°59.039 54.5 12.2 52 12.5
2008-08-05 06:27:52 51°21.682 2°59.06 55.1 12.2 51 12.6
2008-08-05 06:27:57 51°21.693 2°59.081 54.9 12.2 50 12.6
2008-08-05 06:28:02 51°21.703 2°59.103 54.4 12.3 53 12.5
2008-08-05 06:28:07 51°21.714 2°59.122 55.1 12.2 48 12.6
2008-08-05 06:28:12 51°21.724 2°59.144 53.6 12.1 54 12.6
2008-08-05 06:28:17 51°21.735 2°59.165 55.2 12.2 50 12.4
2008-08-05 06:28:22 51°21.746 2°59.185 54.8 12.1 49 12.5
2008-08-05 06:28:27 51°21.756 2°59.207 53.7 12.2 53 12.4
2008-08-05 06:28:32 51°21.768 2°59.225 54.6 12.2 45 12.5
2008-08-05 06:28:37 51°21.778 2°59.247 52.8 12.1 53 12.5
2008-08-05 06:28:42 51°21.79 2°59.267 53.7 12.3 46 12.5
2008-08-05 06:28:47 51°21.8 2°59.288 52.5 12.2 50 12.5
2008-08-05 06:28:52 51°21.812 2°59.307 52.7 12.1 49 12.5
2008-08-05 06:28:57 51°21.822 2°59.328 53.4 12.2 51 12.6
2008-08-05 06:29:02 51°21.833 2°59.349 53.9 12.2 50 12.5
2008-08-05 06:29:07 51°21.843 2°59.371 54.2 12.3 53 12.5
2008-08-05 06:29:12 51°21.854 2°59.391 55.2 12.2 50 12.5
2008-08-05 06:29:17 51°21.864 2°59.413 54.4 12.1 52 12.6
2008-08-05 06:29:22 51°21.875 2°59.434 55.1 12.2 53 12.6
2008-08-05 06:29:27 51°21.885 2°59.455 56 12.2 51 12.4
2008-08-05 06:29:32 51°21.895 2°59.477 55.5 12.2 53 12.3
2008-08-05 06:29:37 51°21.907 2°59.497 56.3 12.2 50 12.4
2008-08-05 06:29:42 51°21.916 2°59.519 55.2 12.2 53 12.4
2008-08-05 06:29:47 51°21.927 2°59.54 55.8 12.2 50 12.4
2008-08-05 06:29:52 51°21.937 2°59.562 55 12.3 54 12.3
2008-08-05 06:29:57 51°21.949 2°59.582 55.5 12.3 49 12.4
2008-08-05 06:30:02 51°21.958 2°59.604 54.7 12.2 54 12.3
2008-08-05 06:30:07 51°21.969 2°59.625 55.7 12.4 50 12.3
2008-08-05 06:30:12 51°21.98 2°59.647 55.1 12.2 53 12.3
2008-08-05 06:30:17 51°21.99 2°59.667 55 12.2 51 12.2
2008-08-05 06:30:22 51°22.001 2°59.689 55.1 12.3 53 12.2
2008-08-05 06:30:27 51°22.012 2°59.71 55.1 12.3 50 12.3
2008-08-05 06:30:32 51°22.022 2°59.732 54.4 12.2 53 12.2
2008-08-05 06:30:37 51°22.033 2°59.752 55.1 12.2 50 12.2
2008-08-05 06:30:42 51°22.044 2°59.773 54.6 12.2 49 12.2
2008-08-05 06:30:47 51°22.055 2°59.793 53.3 12.2 49 12.2
2008-08-05 06:30:52 51°22.066 2°59.813 52.5 12.2 47 12.2
2008-08-05 06:30:57 51°22.077 2°59.834 51.6 12.1 51 12.1
2008-08-05 06:31:02 51°22.088 2°59.854 53 12.2 48 12.1
2008-08-05 06:31:07 51°22.099 2°59.875 52.4 12.1 51 12.4
2008-08-05 06:31:12 51°22.11 2°59.896 53.6 12.2 50 12.2
2008-08-05 06:31:17 51°22.121 2°59.916 53.8 12.1 49 12.1
2008-08-05 06:31:22 51°22.131 2°59.937 53.4 12 51 12.2
2008-08-05 06:31:27 51°22.142 2°59.957 53.6 12.1 50 12.2
2008-08-05 06:31:32 51°22.152 2°59.979 53.7 12.1 52 12.2
2008-08-05 06:31:37 51°22.163 2°59.999 54.5 12 50 12.2
2008-08-05 06:31:42 51°22.173 3°0.02 54.6 12.1 52 12.2
2008-08-05 06:31:47 51°22.184 3°0.041 54.9 12.1 50 12.1
2008-08-05 06:31:52 51°22.194 3°0.061 54.4 12 51 12.2
2008-08-05 06:31:57 51°22.204 3°0.083 54.7 12.1 52 12.1
2008-08-05 06:32:02 51°22.215 3°0.103 55.1 12.1 50 12.1
2008-08-05 06:32:07 51°22.225 3°0.124 54.6 12 52 12
2008-08-05 06:32:12 51°22.236 3°0.145 54.9 12.2 49 12.1
2008-08-05 06:32:17 51°22.248 3°0.165 53.8 12.2 48 12.1
2008-08-05 06:32:22 51°22.258 3°0.186 52.4 12.2 50 12.1
2008-08-05 06:32:27 51°22.269 3°0.206 53.2 12.2 49 12.1
2008-08-05 06:32:32 51°22.28 3°0.227 52.9 12.1 49 12.1
2008-08-05 06:32:37 51°22.291 3°0.247 52.6 12.2 49 12.2
2008-08-05 06:32:42 51°22.302 3°0.267 52.6 12.1 50 12.2
2008-08-05 06:32:47 51°22.313 3°0.288 53.4 12.1 50 12
2008-08-05 06:32:52 51°22.323 3°0.309 53.7 12.1 51 12.1
2008-08-05 06:32:57 51°22.334 3°0.33 54.7 12.1 51 11.9
2008-08-05 06:33:02 51°22.344 3°0.352 54.8 12.1 54 12.1
2008-08-05 06:33:07 51°22.354 3°0.373 56.4 12.2 52 11.9
2008-08-05 06:33:12 51°22.364 3°0.394 56.1 12 54 12.1
2008-08-05 06:33:17 51°22.373 3°0.417 57.1 12.1 58 11.8
2008-08-05 06:33:22 51°22.382 3°0.44 59.6 12.1 58 12.1
2008-08-05 06:33:27 51°22.39 3°0.463 61.3 11.8 62 12.1
2008-08-05 06:33:32 51°22.397 3°0.487 64 12 63 12
2008-08-05 06:33:37 51°22.406 3°0.51 65.5 12 60 12.1
2008-08-05 06:33:42 51°22.412 3°0.534 64.9 11.7 67 12
2008-08-05 06:33:47 51°22.419 3°0.558 67.4 11.9 64 12.1
2008-08-05 06:33:52 51°22.427 3°0.581 68.1 11.9 64 12.1
2008-08-05 06:33:57 51°22.433 3°0.605 67.4 11.8 66 11.9
2008-08-05 06:34:02 51°22.441 3°0.629 68.9 11.9 63 11.9
2008-08-05 06:34:07 51°22.448 3°0.652 67.7 11.9 63 11.9
2008-08-05 06:34:12 51°22.455 3°0.676 66.7 11.8 64 11.9
2008-08-05 06:34:17 51°22.463 3°0.699 66.9 11.7 63 11.8
2008-08-05 06:34:22 51°22.47 3°0.722 66.7 11.8 64 12
2008-08-05 06:34:27 51°22.478 3°0.746 66.7 11.9 63 11.9
2008-08-05 06:34:32 51°22.485 3°0.769 66.4 11.8 63 11.8
2008-08-05 06:34:37 51°22.492 3°0.793 66.3 11.9 64 11.7
2008-08-05 06:34:42 51°22.5 3°0.816 66.9 12 62 11.8
2008-08-05 06:34:47 51°22.508 3°0.839 65.9 11.7 63 11.9
2008-08-05 06:34:52 51°22.515 3°0.863 66.1 11.8 63 11.9
2008-08-05 06:34:57 51°22.523 3°0.886 66.1 12 61 11.8
2008-08-05 06:35:02 51°22.53 3°0.909 65.3 11.9 65 11.7
2008-08-05 06:35:07 51°22.539 3°0.931 65.9 11.7 59 11.9
2008-08-05 06:35:12 51°22.546 3°0.955 65.1 11.9 64 11.8
2008-08-05 06:35:17 51°22.555 3°0.977 64.6 12.1 56 11.7
2008-08-05 06:35:22 51°22.563 3°1 62.2 11.7 62 11.5
2008-08-05 06:35:27 51°22.572 3°1.022 62.7 11.7 57 11.4
2008-08-05 06:35:32 51°22.58 3°1.045 62.7 12 60 11.6
2008-08-05 06:35:37 51°22.589 3°1.067 61.8 12 57 11.4
2008-08-05 06:35:42 51°22.598 3°1.089 61 11.7 57 11.4
2008-08-05 06:35:47 51°22.607 3°1.112 60.9 11.8 58 11.5
2008-08-05 06:35:52 51°22.616 3°1.133 61.6 12 55 11.4
2008-08-05 06:35:57 51°22.625 3°1.156 59.6 11.9 59 11.5
2008-08-05 06:36:02 51°22.634 3°1.177 60.4 11.9 55 11.7
2008-08-05 06:36:07 51°22.644 3°1.199 59.4 12.1 55 11.6
2008-08-05 06:36:12 51°22.654 3°1.221 58.1 12 55 11.9
2008-08-05 06:36:17 51°22.663 3°1.243 58 12 57 12
2008-08-05 06:36:22 51°22.673 3°1.264 59.2 12.1 53 12
2008-08-05 06:36:27 51°22.682 3°1.286 57.5 12 57 11.9
2008-08-05 06:36:32 51°22.691 3°1.309 58.7 11.9 57 12.1
2008-08-05 06:36:37 51°22.7 3°1.33 60.3 11.6 57 11.9
2008-08-05 06:36:42 51°22.708 3°1.351 60.3 11.1 57 11.9
2008-08-05 06:36:47 51°22.716 3°1.372 60.5 11 59 11.8
2008-08-05 06:36:52 51°22.725 3°1.391 61.4 10.7 55 11.7
2008-08-05 06:36:57 51°22.732 3°1.411 60.6 10.3 59 11.6
2008-08-05 06:37:02 51°22.74 3°1.428 60.9 9.8 54 11.6
2008-08-05 06:37:07 51°22.747 3°1.446 60 9.2 57 11.6
2008-08-05 06:37:12 51°22.754 3°1.461 59.3 8.7 53 11.5
2008-08-05 06:37:17 51°22.76 3°1.476 59.1 8.2 57 11.5
2008-08-05 06:37:22 51°22.767 3°1.49 59.4 7.8 55 11.4
2008-08-05 06:37:27 51°22.773 3°1.504 59.2 7.5 54 11.4
2008-08-05 06:37:32 51°22.778 3°1.517 58.9 7.3 55 11.5
2008-08-05 06:37:37 51°22.784 3°1.529 58.9 6.8 54 11.5
2008-08-05 06:37:42 51°22.789 3°1.541 59.1 6.5 53 11.6
2008-08-05 06:37:47 51°22.794 3°1.551 59.4 6.1 54 11.6
2008-08-05 06:37:52 51°22.799 3°1.562 59.6 5.9 53 11.9
2008-08-05 06:37:57 51°22.804 3°1.572 59.5 5.5 54 11.9
2008-08-05 06:38:02 51°22.808 3°1.581 59.2 5.3 52 12.1
2008-08-05 06:38:07 51°22.812 3°1.59 58 5 50 12.2
2008-08-05 06:38:12 51°22.817 3°1.598 54.6 4.8 48 12.1
2008-08-05 06:38:17 51°22.822 3°1.604 52.8 4.6 43 12.2
2008-08-05 06:38:22 51°22.826 3°1.61 48.9 4.3 40 12
2008-08-05 06:38:27 51°22.831 3°1.615 44.9 4.1 33 12
2008-08-05 06:38:32 51°22.836 3°1.62 40.6 3.9 30 12.1
2008-08-05 06:38:37 51°22.841 3°1.623 37.6 3.8 25 11.9
2008-08-05 06:38:42 51°22.845 3°1.626 32.8 3.6 20 12
2008-08-05 06:38:47 51°22.85 3°1.629 29.1 3.5 18 12
2008-08-05 06:38:52 51°22.855 3°1.63 24.2 3.4 13 12.1
2008-08-05 06:38:57 51°22.859 3°1.632 20.8 3.2 11 11.8
2008-08-05 06:39:02 51°22.863 3°1.633 17.3 3.1 8 11.8
2008-08-05 06:39:07 51°22.867 3°1.634 14.1 3 7 11.8
2008-08-05 06:39:12 51°22.871 3°1.634 12.3 2.8 6 12.1
2008-08-05 06:39:17 51°22.875 3°1.635 11.2 2.7 7 12.1
2008-08-05 06:39:22 51°22.879 3°1.636 10.9 2.7 8 12.1
2008-08-05 06:39:27 51°22.882 3°1.636 10.3 2.7 4 12
2008-08-05 06:39:32 51°22.886 3°1.637 10 2.7 6 12
2008-08-05 06:39:37 51°22.89 3°1.637 9.2 2.6 6 11.9
2008-08-05 06:39:42 51°22.893 3°1.638 8.5 2.5 6 12
2008-08-05 06:39:47 51°22.896 3°1.639 7.9 2.5 7 12.2
2008-08-05 06:39:52 51°22.9 3°1.64 7.9 2.4 7 12.1
2008-08-05 06:39:57 51°22.903 3°1.64 7.8 2.4 5 12.1
2008-08-05 06:40:02 51°22.907 3°1.64 7.9 2.4 3 12.1
2008-08-05 06:40:07 51°22.91 3°1.64 7.5 2.4 2 12.1
2008-08-05 06:40:12 51°22.913 3°1.64 7.2 2.3 1 12.2
2008-08-05 06:40:17 51°22.916 3°1.64 7.2 2.3 1 12.2
2008-08-05 06:40:22 51°22.92 3°1.641 6.7 2.3 3 12.2
2008-08-05 06:40:27 51°22.923 3°1.641 6.5 2.2 2 12.3
2008-08-05 06:40:32 51°22.926 3°1.641 6.2 2.1 4 12.2
2008-08-05 06:40:37 51°22.928 3°1.64 5.8 2 356 12.1
2008-08-05 06:40:42 51°22.931 3°1.64 5.4 2 359 12.2
2008-08-05 06:40:47 51°22.934 3°1.64 4.9 1.9 356 12.1
2008-08-05 06:40:52 51°22.936 3°1.639 4.2 1.9 355 12.1
2008-08-05 06:40:57 51°22.939 3°1.639 3.5 1.9 358 12.2
2008-08-05 06:41:02 51°22.942 3°1.639 2.8 1.9 354 12.2
2008-08-05 06:41:07 51°22.944 3°1.639 2.5 1.9 357 12.1
2008-08-05 06:41:12 51°22.947 3°1.638 2.6 1.9 356 12.3
2008-08-05 06:41:17 51°22.95 3°1.638 3.2 1.9 357 12.4
2008-08-05 06:41:22 51°22.952 3°1.638 3.8 1.8 356 12.5
2008-08-05 06:41:27 51°22.955 3°1.638 4.5 1.8 -999 12.4
2008-08-05 06:41:32 51°22.957 3°1.638 5.3 1.7 359 12.2
2008-08-05 06:41:37 51°22.959 3°1.637 5.8 1.5 357 12
2008-08-05 06:41:42 51°22.961 3°1.637 5.9 1.4 352 12.1
2008-08-05 06:41:47 51°22.963 3°1.637 5.7 1.2 352 12.1
2008-08-05 06:41:52 51°22.964 3°1.636 5.7 1.2 354 12
2008-08-05 06:41:57 51°22.966 3°1.636 6.1 1.1 1 12.1
2008-08-05 06:42:02 51°22.967 3°1.636 5.8 1.2 353 12.2
2008-08-05 06:42:07 51°22.969 3°1.636 5 1.1 356 12.2
2008-08-05 06:42:12 51°22.97 3°1.635 4.2 1.1 355 12.3
2008-08-05 06:42:17 51°22.972 3°1.636 3.1 1.1 2 12.3
2008-08-05 06:42:22 51°22.973 3°1.635 2.2 1.1 353 12.1
2008-08-05 06:42:27 51°22.975 3°1.635 1.4 1 355 12
2008-08-05 06:42:32 51°22.976 3°1.634 0.6 1 351 12.2
2008-08-05 06:42:37 51°22.977 3°1.634 359.5 1 348 12.3
2008-08-05 06:42:42 51°22.979 3°1.633 358.8 1 345 12.2
2008-08-05 06:42:47 51°22.98 3°1.633 358.2 0.9 348 12.3
2008-08-05 06:42:52 51°22.981 3°1.632 357.5 0.9 344 12.4
2008-08-05 06:42:57 51°22.983 3°1.632 356.8 0.9 353 12.3
2008-08-05 06:43:02 51°22.984 3°1.632 356.2 0.9 343 12.3
2008-08-05 06:43:07 51°22.985 3°1.631 355.6 0.9 347 12.3
2008-08-05 06:43:12 51°22.986 3°1.631 355 0.9 339 12.4
2008-08-05 06:43:17 51°22.987 3°1.63 354.1 0.8 349 12.4
2008-08-05 06:43:22 51°22.988 3°1.629 353.5 0.8 342 12.4
2008-08-05 06:43:27 51°22.989 3°1.629 352.9 0.8 349 12.4
2008-08-05 06:43:32 51°22.991 3°1.629 352.1 0.8 346 12.4
2008-08-05 06:43:37 51°22.992 3°1.628 351.7 0.8 345 12.3
2008-08-05 06:43:42 51°22.993 3°1.628 351.4 0.8 343 12.3
2008-08-05 06:43:47 51°22.994 3°1.627 350.8 0.7 345 12.4
2008-08-05 06:43:52 51°22.995 3°1.626 350.3 0.7 337 12.4
2008-08-05 06:43:57 51°22.996 3°1.626 349.6 0.7 338 12.4
2008-08-05 06:44:02 51°22.997 3°1.626 349.1 0.6 338 12.4
2008-08-05 06:44:07 51°22.998 3°1.625 348.5 0.6 340 12.3
2008-08-05 06:44:12 51°22.998 3°1.625 348 0.7 341 12.3
2008-08-05 06:44:17 51°22.999 3°1.624 347.6 0.6 333 12.2
2008-08-05 06:44:22 51°23 3°1.623 347.3 0.6 336 12.3
2008-08-05 06:44:27 51°23.001 3°1.623 346.7 0.7 334 12.3
2008-08-05 06:44:32 51°23.002 3°1.622 346.4 0.6 344 12.2
2008-08-05 06:44:37 51°23.003 3°1.622 346 0.6 336 12.4
2008-08-05 06:44:42 51°23.004 3°1.621 345.5 0.6 342 12.4
2008-08-05 06:44:47 51°23.004 3°1.621 345.5 0.6 338 12.4
2008-08-05 06:44:52 51°23.005 3°1.62 345.1 0.6 332 12.5
2008-08-05 06:44:57 51°23.006 3°1.62 344.9 0.6 335 12.4
2008-08-05 06:45:02 51°23.007 3°1.62 344.5 0.6 338 12.4
2008-08-05 06:45:07 51°23.008 3°1.619 344 0.6 344 12.4
2008-08-05 06:45:12 51°23.009 3°1.619 343.8 0.6 336 12.4
2008-08-05 06:45:17 51°23.009 3°1.619 343.4 0.6 347 12.4
2008-08-05 06:45:22 51°23.01 3°1.618 343.2 0.6 337 12.4
2008-08-05 06:45:27 51°23.011 3°1.618 342.8 0.6 343 12.3
2008-08-05 06:45:32 51°23.012 3°1.618 342.9 0.5 344 12.4
2008-08-05 06:45:37 51°23.013 3°1.617 342.7 0.6 354 12.4
2008-08-05 06:45:42 51°23.013 3°1.617 342.7 0.6 341 12.4
2008-08-05 06:45:47 51°23.014 3°1.616 342.9 0.5 348 12.4
2008-08-05 06:45:52 51°23.015 3°1.616 343 0.5 335 12.4
2008-08-05 06:45:57 51°23.015 3°1.616 343 0.5 347 12.4
2008-08-05 06:46:02 51°23.016 3°1.615 343 0.5 343 12.5
2008-08-05 06:46:07 51°23.017 3°1.615 343.1 0.5 340 12.4
2008-08-05 06:46:12 51°23.018 3°1.615 343 0.6 352 12.4
2008-08-05 06:46:17 51°23.018 3°1.614 342.8 0.5 347 12.3
2008-08-05 06:46:22 51°23.019 3°1.614 342.9 0.5 354 12.3
2008-08-05 06:46:27 51°23.019 3°1.614 343.2 0.5 341 12.3
2008-08-05 06:46:32 51°23.02 3°1.613 343.2 0.5 343 12.3
2008-08-05 06:46:37 51°23.021 3°1.613 343.6 0.5 343 12.4
2008-08-05 06:46:42 51°23.021 3°1.613 343.7 0.5 340 12.3
2008-08-05 06:46:47 51°23.022 3°1.613 344.2 0.5 338 12.3
2008-08-05 06:46:52 51°23.023 3°1.612 344.3 0.5 339 12.3
2008-08-05 06:46:57 51°23.023 3°1.612 344.6 0.5 353 12.4
2008-08-05 06:47:02 51°23.024 3°1.611 344.7 0.5 338 12.4
2008-08-05 06:47:07 51°23.024 3°1.611 344.9 0.5 348 12.4
2008-08-05 06:47:12 51°23.025 3°1.61 345.1 0.5 338 12.5
2008-08-05 06:47:17 51°23.026 3°1.61 345.2 0.5 355 12.4
2008-08-05 06:47:22 51°23.026 3°1.61 345.5 0.5 343 12.3
2008-08-05 06:47:27 51°23.027 3°1.61 345.9 0.5 349 12.4
2008-08-05 06:47:32 51°23.028 3°1.609 346.1 0.5 340 12.4
2008-08-05 06:47:37 51°23.028 3°1.609 346.2 0.5 352 12.5
2008-08-05 06:47:42 51°23.029 3°1.609 346.4 0.5 355 12.5
2008-08-05 06:47:47 51°23.03 3°1.608 346.5 0.5 348 12.5
2008-08-05 06:47:52 51°23.031 3°1.608 347.2 0.5 348 12.4
2008-08-05 06:47:57 51°23.031 3°1.608 347.5 0.5 351 12.5
2008-08-05 06:48:02 51°23.032 3°1.608 347.6 0.5 348 12.4
2008-08-05 06:48:07 51°23.033 3°1.607 348.2 0.5 342 12.4
2008-08-05 06:48:12 51°23.033 3°1.607 348.3 0.5 352 12.3
2008-08-05 06:48:17 51°23.034 3°1.607 348.6 0.5 345 12.4
2008-08-05 06:48:22 51°23.035 3°1.606 348.8 0.5 348 12.5
2008-08-05 06:48:27 51°23.035 3°1.606 348.7 0.6 342 12.5
2008-08-05 06:48:32 51°23.036 3°1.605 348.9 0.5 345 12.5
2008-08-05 06:48:37 51°23.037 3°1.605 348.9 0.5 339 12.4
2008-08-05 06:48:42 51°23.037 3°1.605 348.8 0.5 346 12.4
2008-08-05 06:48:47 51°23.038 3°1.605 348.9 0.5 335 12.4
2008-08-05 06:48:52 51°23.039 3°1.604 349 0.5 340 12.4
2008-08-05 06:48:57 51°23.04 3°1.604 348.7 0.5 334 12.4
2008-08-05 06:49:02 51°23.04 3°1.603 348.7 0.5 339 12.4
2008-08-05 06:49:07 51°23.041 3°1.603 348.6 0.6 336 12.4
2008-08-05 06:49:12 51°23.042 3°1.602 348.5 0.6 345 12.3
2008-08-05 06:49:17 51°23.043 3°1.602 348.6 0.6 329 12.4
2008-08-05 06:49:22 51°23.043 3°1.601 348.5 0.6 338 12.3
2008-08-05 06:49:27 51°23.044 3°1.601 348.3 0.6 339 12.3
2008-08-05 06:49:32 51°23.045 3°1.6 348.1 0.5 348 12.3
2008-08-05 06:49:37 51°23.045 3°1.6 348 0.5 340 12.4
2008-08-05 06:49:42 51°23.046 3°1.6 348 0.5 342 12.4
2008-08-05 06:49:47 51°23.047 3°1.599 348.3 0.6 345 12.3
2008-08-05 06:49:52 51°23.048 3°1.599 348.3 0.6 340 12.3
2008-08-05 06:49:57 51°23.048 3°1.599 348.4 0.5 344 12.2
2008-08-05 06:50:02 51°23.049 3°1.598 348.5 0.5 335 12.3
2008-08-05 06:50:07 51°23.05 3°1.598 348.4 0.5 341 12.3
2008-08-05 06:50:12 51°23.05 3°1.597 348.4 0.5 338 12.3
2008-08-05 06:50:17 51°23.051 3°1.597 348.6 0.6 341 12.4
2008-08-05 06:50:22 51°23.052 3°1.596 348.7 0.6 350 12.4
2008-08-05 06:50:27 51°23.053 3°1.596 348.8 0.6 340 12.3
2008-08-05 06:50:32 51°23.053 3°1.595 349.1 0.6 348 12.3
2008-08-05 06:50:37 51°23.054 3°1.595 349.1 0.6 329 12.3
2008-08-05 06:50:42 51°23.055 3°1.594 349.5 0.6 344 12.4
2008-08-05 06:50:47 51°23.055 3°1.594 349.5 0.6 330 12.4
2008-08-05 06:50:52 51°23.056 3°1.594 349.7 0.5 342 12.4
2008-08-05 06:50:57 51°23.057 3°1.593 349.9 0.6 333 12.4
2008-08-05 06:51:02 51°23.058 3°1.593 350.4 0.9 357 12.4
2008-08-05 06:51:07 51°23.06 3°1.592 350.5 1.2 341 12.4
2008-08-05 06:51:12 51°23.062 3°1.592 352 1.5 354 12.4
2008-08-05 06:51:17 51°23.064 3°1.59 354.9 1.9 346 12.3
2008-08-05 06:51:22 51°23.067 3°1.59 358.5 2.2 355 12.5
2008-08-05 06:51:27 51°23.071 3°1.589 2.6 2.6 354 12.6
2008-08-05 06:51:32 51°23.075 3°1.59 7.2 2.9 3 12.6
2008-08-05 06:51:37 51°23.079 3°1.59 12.8 3.1 6 12.7
2008-08-05 06:51:42 51°23.084 3°1.592 18.6 3.3 13 12.7
2008-08-05 06:51:47 51°23.088 3°1.594 24.7 3.4 17 12.7
2008-08-05 06:51:52 51°23.093 3°1.598 30.4 3.4 25 12.6
2008-08-05 06:51:57 51°23.097 3°1.602 36.2 3.5 33 12.5
2008-08-05 06:52:02 51°23.1 3°1.607 42.8 3.5 39 12.5
2008-08-05 06:52:07 51°23.103 3°1.613 50.3 3.4 50 12.6
2008-08-05 06:52:12 51°23.106 3°1.619 57.7 3.4 55 12.8
2008-08-05 06:52:17 51°23.108 3°1.625 65.1 3.3 65 12.7
2008-08-05 06:52:22 51°23.109 3°1.632 72.5 3.3 73 12.4
2008-08-05 06:52:27 51°23.11 3°1.639 80 3.2 83 12.6
2008-08-05 06:52:32 51°23.11 3°1.647 87.3 3.3 91 12.4
2008-08-05 06:52:37 51°23.109 3°1.654 94.5 3.2 101 12.6
2008-08-05 06:52:42 51°23.107 3°1.661 101.9 3.2 110 12.6
2008-08-05 06:52:47 51°23.105 3°1.667 109.2 3.2 119 12.5
2008-08-05 06:52:52 51°23.102 3°1.673 116.3 3.3 130 12.5
2008-08-05 06:52:57 51°23.099 3°1.678 123.7 3.2 135 12.4
2008-08-05 06:53:02 51°23.095 3°1.681 130.5 2.9 145 12.5
2008-08-05 06:53:07 51°23.092 3°1.685 137 2.7 146 12.4
2008-08-05 06:53:12 51°23.089 3°1.687 141.3 2.5 150 12.3
2008-08-05 06:53:17 51°23.086 3°1.69 143.6 2.4 151 12.1
2008-08-05 06:53:22 51°23.083 3°1.692 144.8 2.4 152 12.1
2008-08-05 06:53:27 51°23.081 3°1.695 145.1 2.3 156 12.2